createdAt,value
2022-11-06T00:08:53.128Z,3.7
2022-11-06T00:15:07.331Z,3.7
2022-11-06T00:19:40.750Z,3.6
2022-11-06T00:23:31.043Z,3.7
2022-11-06T00:26:05.236Z,3.6
2022-11-06T00:31:11.400Z,3.8
2022-11-06T00:41:53.474Z,3.7
2022-11-06T00:47:37.759Z,3.4
2022-11-06T00:52:40.736Z,3.6
2022-11-06T00:57:00.840Z,3.4
2022-11-06T01:00:29.534Z,3.5
2022-11-06T01:04:43.906Z,3.6
2022-11-06T01:06:41.590Z,3.6
2022-11-06T01:09:15.979Z,3.6
2022-11-06T01:18:38.930Z,3.3
2022-11-06T01:19:22.140Z,3.3
2022-11-06T01:27:27.590Z,3.4
2022-11-06T01:33:19.163Z,3.5
2022-11-06T01:37:26.559Z,3.4
2022-11-06T01:39:30.630Z,3.4
2022-11-06T01:42:48.979Z,3.3
2022-11-06T01:46:08.013Z,3.2
2022-11-06T01:51:29.454Z,2.9
2022-11-06T01:59:13.969Z,2.9
2022-11-06T02:09:37.694Z,2.9
2022-11-06T02:11:49.866Z,2.9
2022-11-06T02:16:56.832Z,2.7
2022-11-06T02:20:09.509Z,2.5
2022-11-06T02:22:39.451Z,2.4
2022-11-06T02:26:54.600Z,2.2
2022-11-06T02:30:38.960Z,2.2
2022-11-06T02:36:00.290Z,2.1
2022-11-06T02:50:22.227Z,2
2022-11-06T02:50:24.246Z,2.4
2022-11-06T03:07:47.584Z,1.9
2022-11-06T03:09:45.427Z,2
2022-11-06T03:11:44.733Z,1.9
2022-11-06T03:13:44.041Z,1.9
2022-11-06T03:15:47.217Z,1.7
2022-11-06T03:17:44.173Z,1.8
2022-11-06T03:19:53.732Z,1.9
2022-11-06T03:21:50.009Z,1.8
2022-11-06T03:25:46.635Z,2
2022-11-06T03:27:47.304Z,2
2022-11-06T03:29:44.731Z,2.1
2022-11-06T03:31:44.019Z,2.1
2022-11-06T03:33:50.245Z,2.2
2022-11-06T03:35:47.553Z,2.1
2022-11-06T03:37:44.783Z,2
2022-11-06T03:39:44.460Z,2
2022-11-06T03:41:50.884Z,1.9
2022-11-06T03:43:46.873Z,1.8
2022-11-06T03:45:46.828Z,1.9
2022-11-06T03:47:44.135Z,2
2022-11-06T03:49:43.998Z,2
2022-11-06T03:51:47.902Z,1.9
2022-11-06T03:53:44.493Z,1.8
2022-11-06T03:55:45.396Z,1.6
2022-11-06T03:57:47.279Z,1.6
2022-11-06T03:59:45.362Z,1.5
2022-11-06T04:01:44.853Z,1.5
2022-11-06T04:03:46.835Z,1.5
2022-11-06T04:05:50.437Z,1.4
2022-11-06T04:09:45.323Z,1.4
2022-11-06T04:11:44.018Z,1.6
2022-11-06T04:13:47.297Z,1.5
2022-11-06T04:15:45.252Z,1.7
2022-11-06T04:17:47.232Z,1.7
2022-11-06T04:19:46.890Z,1.9
2022-11-06T04:23:50.947Z,2
2022-11-06T04:25:50.779Z,1.9
2022-11-06T04:27:44.886Z,2
2022-11-06T04:29:45.321Z,1.8
2022-11-06T04:33:44.469Z,1.8
2022-11-06T04:35:44.388Z,1.8
2022-11-06T04:37:50.867Z,1.7
2022-11-06T04:39:46.828Z,1.6
2022-11-06T04:41:52.455Z,1.9
2022-11-06T04:43:50.537Z,2.1
2022-11-06T04:45:45.821Z,1.9
2022-11-06T04:47:44.001Z,1.9
2022-11-06T04:49:54.348Z,1.9
2022-11-06T04:53:46.823Z,2
2022-11-06T04:55:46.919Z,2
2022-11-06T04:57:44.488Z,2
2022-11-06T05:05:45.283Z,1.6
2022-11-06T05:07:44.015Z,1.6
2022-11-06T05:09:44.833Z,1.6
2022-11-06T05:11:44.058Z,1.6
2022-11-06T05:13:47.272Z,1.6
2022-11-06T05:15:54.450Z,1.6
2022-11-06T05:17:44.038Z,1.6
2022-11-06T05:19:44.030Z,1.7
2022-11-06T05:21:47.223Z,1.6
2022-11-06T05:23:47.319Z,1.7
2022-11-06T05:27:47.276Z,1.6
2022-11-06T05:29:46.600Z,1.6
2022-11-06T05:31:44.031Z,1.5
2022-11-06T05:33:45.004Z,1.4
2022-11-06T05:35:44.408Z,1.6
2022-11-06T05:37:44.018Z,1.7
2022-11-06T05:39:47.526Z,1.6
2022-11-06T05:41:44.416Z,1.7
2022-11-06T05:43:44.013Z,1.7
2022-11-06T05:45:48.902Z,1.8
2022-11-06T05:47:44.487Z,1.7
2022-11-06T05:49:46.898Z,1.6
2022-11-06T05:51:46.835Z,1.6
2022-11-06T05:53:45.281Z,1.6
2022-11-06T05:57:44.516Z,1.4
2022-11-06T05:59:44.511Z,1.4
2022-11-06T06:01:47.355Z,1.5
2022-11-06T06:03:46.868Z,1.4
2022-11-06T06:05:44.035Z,1.5
2022-11-06T06:07:46.615Z,1.6
2022-11-06T06:09:45.925Z,1.6
2022-11-06T06:11:46.830Z,1.4
2022-11-06T06:13:44.475Z,1.2
2022-11-06T06:15:44.882Z,1
2022-11-06T06:17:44.470Z,0.9
2022-11-06T06:19:45.317Z,1.3
2022-11-06T06:21:46.846Z,1.3
2022-11-06T06:23:47.323Z,1.3
2022-11-06T06:25:44.023Z,1.4
2022-11-06T06:27:50.894Z,1.4
2022-11-06T06:29:44.395Z,1.5
2022-11-06T06:31:46.881Z,1.3
2022-11-06T06:33:46.900Z,1.2
2022-11-06T06:35:45.341Z,1.2
2022-11-06T06:37:44.036Z,1.2
2022-11-06T06:39:44.507Z,1.1
2022-11-06T06:41:44.467Z,1.2
2022-11-06T06:43:44.488Z,1.2
2022-11-06T06:45:45.311Z,1.3
2022-11-06T06:47:44.507Z,1.3
2022-11-06T06:49:46.889Z,1.4
2022-11-06T06:51:47.262Z,1.4
2022-11-06T06:55:45.355Z,1.5
2022-11-06T06:57:46.841Z,1.3
2022-11-06T07:03:44.486Z,1.6
2022-11-06T07:05:44.064Z,1.6
2022-11-06T07:09:45.282Z,1.9
2022-11-06T07:11:44.009Z,2
2022-11-06T07:13:46.869Z,1.8
2022-11-06T07:15:46.600Z,1.7
2022-11-06T07:17:46.611Z,1.7
2022-11-06T07:19:45.374Z,1.8
2022-11-06T07:21:45.249Z,2
2022-11-06T07:23:46.833Z,2
2022-11-06T07:25:44.045Z,2
2022-11-06T07:29:45.325Z,2.1
2022-11-06T07:31:46.904Z,2.2
2022-11-06T07:33:44.476Z,2.2
2022-11-06T07:35:44.014Z,2.1
2022-11-06T07:37:44.106Z,2.2
2022-11-06T07:39:44.602Z,2
2022-11-06T07:41:44.541Z,2.2
2022-11-06T07:43:44.441Z,2.3
2022-11-06T07:45:47.132Z,2.2
2022-11-06T07:47:47.250Z,2.1
2022-11-06T07:49:48.214Z,2.3
2022-11-06T07:51:51.205Z,2.4
2022-11-06T07:53:46.847Z,2.5
2022-11-06T07:57:44.915Z,2.9
2022-11-06T07:59:46.867Z,2.7
2022-11-06T08:01:44.127Z,2.9
2022-11-06T08:03:44.510Z,2.9
2022-11-06T08:05:46.855Z,3.2
2022-11-06T08:07:44.017Z,3.3
2022-11-06T08:09:45.373Z,3.2
2022-11-06T08:11:45.156Z,3
2022-11-06T08:15:54.011Z,2.8
2022-11-06T08:19:44.024Z,3
2022-11-06T08:21:44.784Z,3.3
2022-11-06T08:23:46.852Z,3.2
2022-11-06T08:25:46.634Z,3
2022-11-06T08:27:44.531Z,3.5
2022-11-06T08:29:48.484Z,3.2
2022-11-06T08:31:47.295Z,3.4
2022-11-06T08:35:50.385Z,3.1
2022-11-06T08:37:47.300Z,3.3
2022-11-06T08:39:46.885Z,3.5
2022-11-06T08:41:44.051Z,3.6
2022-11-06T08:43:44.033Z,3.4
2022-11-06T08:45:44.680Z,3.7
2022-11-06T08:47:47.253Z,3.8
2022-11-06T08:51:45.249Z,3.8
2022-11-06T08:53:47.268Z,3.5
2022-11-06T08:55:47.275Z,3.6
2022-11-06T08:57:44.481Z,3.4
2022-11-06T08:59:50.624Z,3.8
2022-11-06T09:03:47.253Z,3.9
2022-11-06T09:05:47.176Z,3.9
2022-11-06T09:09:46.872Z,3.9
2022-11-06T09:13:49.896Z,3.9
2022-11-06T09:15:44.509Z,3.9
2022-11-06T09:17:46.879Z,4
2022-11-06T09:21:44.492Z,4.1
2022-11-06T09:23:44.062Z,4
2022-11-06T09:25:44.084Z,4.2
2022-11-06T09:27:46.881Z,4.1
2022-11-06T09:29:44.052Z,4.4
2022-11-06T09:31:44.068Z,4.4
2022-11-06T09:33:50.980Z,4.4
2022-11-06T09:35:44.116Z,4.5
2022-11-06T09:37:44.133Z,4.5
2022-11-06T09:39:45.396Z,4.4
2022-11-06T09:41:46.868Z,4.6
2022-11-06T09:44:05.431Z,4.5
2022-11-06T09:45:54.705Z,4.6
2022-11-06T09:49:46.929Z,4.4
2022-11-06T09:51:46.879Z,4.4
2022-11-06T09:53:47.287Z,4.4
2022-11-06T09:57:46.902Z,4.5
2022-11-06T09:59:54.324Z,4.6
2022-11-06T10:01:51.109Z,4.7
2022-11-06T10:03:45.150Z,4.8
2022-11-06T10:05:47.173Z,4.7
2022-11-06T10:07:46.910Z,4.8
2022-11-06T10:09:54.064Z,5.1
2022-11-06T10:11:46.689Z,5.1
2022-11-06T10:13:47.299Z,5.3
2022-11-06T10:17:46.904Z,5.1
2022-11-06T10:19:44.779Z,5.1
2022-11-06T10:21:44.907Z,5.2
2022-11-06T10:23:44.050Z,5.1
2022-11-06T10:25:47.300Z,5.2
2022-11-06T10:31:44.092Z,5.7
2022-11-06T10:33:44.529Z,5.7
2022-11-06T10:35:54.441Z,5.7
2022-11-06T10:37:44.074Z,5.9
2022-11-06T10:39:44.510Z,5.8
2022-11-06T10:41:47.274Z,5.9
2022-11-06T10:43:46.923Z,5.9
2022-11-06T10:45:44.552Z,5.9
2022-11-06T10:47:47.347Z,6
2022-11-06T10:49:47.348Z,6.5
2022-11-06T10:53:44.079Z,6.5
2022-11-06T10:55:49.039Z,6.4
2022-11-06T10:57:44.931Z,6.3
2022-11-06T10:59:47.261Z,6.5
2022-11-06T11:01:47.124Z,6.6
2022-11-06T11:03:44.637Z,6.7
2022-11-06T11:05:46.900Z,6.4
2022-11-06T11:07:47.380Z,6.5
2022-11-06T11:09:44.623Z,6.7
2022-11-06T11:11:45.504Z,6.7
2022-11-06T11:13:51.525Z,6.8
2022-11-06T11:15:47.285Z,6.9
2022-11-06T11:17:46.899Z,6.7
2022-11-06T11:19:47.332Z,6.8
2022-11-06T11:21:45.398Z,7.2
2022-11-06T11:23:47.282Z,6.9
2022-11-06T11:25:44.079Z,6.9
2022-11-06T11:27:47.334Z,7.3
2022-11-06T11:29:50.282Z,7.1
2022-11-06T11:37:53.517Z,7.3
2022-11-06T11:39:55.232Z,7.4
2022-11-06T11:41:50.576Z,7.6
2022-11-06T11:43:50.670Z,8
2022-11-06T11:45:55.045Z,8
2022-11-06T11:47:53.336Z,8.2
2022-11-06T11:49:52.236Z,8.3
2022-11-06T11:51:55.240Z,8.1
2022-11-06T11:53:54.532Z,8
2022-11-06T11:55:50.620Z,8
2022-11-06T11:59:54.436Z,8.4
2022-11-06T12:01:53.164Z,8.3
2022-11-06T12:03:55.585Z,8.4
2022-11-06T12:05:53.778Z,8.2
2022-11-06T12:07:49.831Z,8.2
2022-11-06T12:09:55.433Z,8
2022-11-06T12:11:53.705Z,7.9
2022-11-06T12:13:52.387Z,8.1
2022-11-06T12:15:54.261Z,7.9
2022-11-06T12:17:51.542Z,8.1
2022-11-06T12:19:51.056Z,8.2
2022-11-06T12:21:55.158Z,8.5
2022-11-06T12:23:54.494Z,8.6
2022-11-06T12:25:54.688Z,8.6
2022-11-06T12:29:51.189Z,8.5
2022-11-06T12:31:54.495Z,8.6
2022-11-06T12:34:06.702Z,8.7
2022-11-06T12:35:51.457Z,8.8
2022-11-06T12:37:55.635Z,8.8
2022-11-06T12:41:53.399Z,8.7
2022-11-06T12:43:59.006Z,8.8
2022-11-06T12:47:52.428Z,8.9
2022-11-06T12:49:54.211Z,8.9
2022-11-06T12:51:53.877Z,8.9
2022-11-06T12:53:53.239Z,8.8
2022-11-06T12:55:54.654Z,8.8
2022-11-06T12:57:55.400Z,8.8
2022-11-06T12:59:54.716Z,8.9
2022-11-06T13:01:53.384Z,8.8
2022-11-06T13:05:51.109Z,8.9
2022-11-06T13:07:54.953Z,8.5
2022-11-06T13:09:55.377Z,8.5
2022-11-06T13:11:55.009Z,8.5
2022-11-06T13:13:54.116Z,8.5
2022-11-06T13:15:55.317Z,8.7
2022-11-06T13:17:54.904Z,8.7
2022-11-06T13:19:52.996Z,8.8
2022-11-06T13:23:52.497Z,8.8
2022-11-06T13:25:54.629Z,8.5
2022-11-06T13:29:54.077Z,8.9
2022-11-06T13:31:48.711Z,8.8
2022-11-06T13:35:55.339Z,8.7
2022-11-06T13:37:54.123Z,8.7
2022-11-06T13:41:54.391Z,8.7
2022-11-06T13:43:55.558Z,8.8
2022-11-06T13:45:54.883Z,8.9
2022-11-06T13:47:55.249Z,8.9
2022-11-06T13:49:50.557Z,9
2022-11-06T13:51:53.502Z,9
2022-11-06T13:53:52.977Z,8.9
2022-11-06T13:55:50.355Z,9
2022-11-06T13:57:55.528Z,9
2022-11-06T13:59:48.696Z,9.1
2022-11-06T14:01:52.428Z,9.1
2022-11-06T14:03:55.356Z,9.1
2022-11-06T14:05:48.692Z,9
2022-11-06T14:07:50.109Z,8.8
2022-11-06T14:11:54.098Z,8.8
2022-11-06T14:13:51.901Z,8.9
2022-11-06T14:17:53.543Z,8.7
2022-11-06T14:19:51.043Z,8.5
2022-11-06T14:21:55.772Z,8.5
2022-11-06T14:23:53.750Z,8.4
2022-11-06T14:25:48.718Z,8.2
2022-11-06T14:29:53.187Z,8.1
2022-11-06T14:31:54.784Z,8.1
2022-11-06T14:33:55.353Z,7.8
2022-11-06T14:35:51.590Z,7.9
2022-11-06T14:37:55.251Z,7.9
2022-11-06T14:41:51.620Z,7.9
2022-11-06T14:43:54.564Z,8
2022-11-06T14:47:48.752Z,7.8
2022-11-06T14:49:55.736Z,7.8
2022-11-06T14:51:55.762Z,7.7
2022-11-06T14:53:50.512Z,7.6
2022-11-06T14:55:54.474Z,7.4
2022-11-06T14:59:55.608Z,7.4
2022-11-06T15:01:58.949Z,7.4
2022-11-06T15:03:55.354Z,7.3
2022-11-06T15:05:52.603Z,7.2
2022-11-06T15:08:04.279Z,7.3
2022-11-06T15:09:55.701Z,7.2
2022-11-06T15:11:53.113Z,7.1
2022-11-06T15:13:50.101Z,6.9
2022-11-06T15:15:55.415Z,6.9
2022-11-06T15:17:50.026Z,6.8
2022-11-06T15:19:53.102Z,6.8
2022-11-06T15:21:55.523Z,6.7
2022-11-06T15:23:55.606Z,6.6
2022-11-06T15:25:54.575Z,6.6
2022-11-06T15:27:54.865Z,6.6
2022-11-06T15:29:54.496Z,6.5
2022-11-06T15:31:48.741Z,6.5
2022-11-06T15:33:55.827Z,6.5
2022-11-06T15:35:54.888Z,6.4
2022-11-06T15:37:53.329Z,6.4
2022-11-06T15:41:49.070Z,6.3
2022-11-06T15:43:54.085Z,6.3
2022-11-06T15:47:55.877Z,6.2
2022-11-06T15:49:54.083Z,6.2
2022-11-06T15:51:55.296Z,6.1
2022-11-06T15:53:52.021Z,6
2022-11-06T15:55:55.608Z,6
2022-11-06T15:59:50.992Z,5.8
2022-11-06T16:01:50.202Z,5.8
2022-11-06T16:03:55.570Z,5.8
2022-11-06T16:05:52.471Z,5.8
2022-11-06T16:07:52.464Z,5.8
2022-11-06T16:09:53.650Z,5.8
2022-11-06T16:11:52.637Z,5.8
2022-11-06T16:13:53.598Z,5.8
2022-11-06T16:15:55.592Z,5.8
2022-11-06T16:17:54.331Z,5.8
2022-11-06T16:19:52.826Z,5.7
2022-11-06T16:23:51.010Z,5.5
2022-11-06T16:25:54.622Z,5.4
2022-11-06T16:27:55.396Z,5.4
2022-11-06T16:29:52.474Z,5.4
2022-11-06T16:31:48.782Z,5.3
2022-11-06T16:33:55.219Z,5.3
2022-11-06T16:35:55.419Z,5.4
2022-11-06T16:37:53.266Z,5.5
2022-11-06T16:41:49.085Z,5.8
2022-11-06T16:43:52.110Z,5.8
2022-11-06T16:45:55.512Z,5.8
2022-11-06T16:47:51.815Z,5.8
2022-11-06T16:49:53.097Z,5.8
2022-11-06T16:51:55.379Z,5.7
2022-11-06T16:53:52.894Z,5.6
2022-11-06T16:55:48.742Z,5.6
2022-11-06T16:57:55.362Z,5.6
2022-11-06T16:59:52.028Z,5.6
2022-11-06T17:01:53.821Z,5.6
2022-11-06T17:05:52.351Z,5.6
2022-11-06T17:07:53.248Z,5.6
2022-11-06T17:09:55.531Z,5.7
2022-11-06T17:11:53.352Z,5.7
2022-11-06T17:13:55.196Z,5.7
2022-11-06T17:15:55.540Z,5.7
2022-11-06T17:17:51.357Z,5.7
2022-11-06T17:19:48.746Z,5.7
2022-11-06T17:23:50.025Z,5.7
2022-11-06T17:25:52.485Z,5.7
2022-11-06T17:27:55.125Z,5.7
2022-11-06T17:29:48.752Z,5.7
2022-11-06T17:31:54.306Z,5.7
2022-11-06T17:33:52.706Z,5.7
2022-11-06T17:35:52.765Z,5.7
2022-11-06T17:37:51.831Z,5.7
2022-11-06T17:41:52.516Z,5.8
2022-11-06T17:43:53.828Z,5.7
2022-11-06T17:45:55.678Z,5.8
2022-11-06T17:47:53.813Z,5.8
2022-11-06T17:49:48.768Z,5.8
2022-11-06T17:53:48.763Z,5.9
2022-11-06T17:55:54.283Z,6
2022-11-06T17:57:59.050Z,6
2022-11-06T17:59:48.783Z,6
2022-11-06T18:01:51.815Z,6.1
2022-11-06T18:05:54.357Z,6.1
2022-11-06T18:07:52.167Z,6.1
2022-11-06T18:09:55.603Z,6.1
2022-11-06T18:11:52.152Z,6.1
2022-11-06T18:13:52.613Z,6.1
2022-11-06T18:17:50.163Z,6.1
2022-11-06T18:19:52.230Z,6.1
2022-11-06T18:21:55.026Z,6.1
2022-11-06T18:23:52.052Z,6.1
2022-11-06T18:25:53.552Z,6.2
2022-11-06T18:27:58.346Z,6.1
2022-11-06T18:29:52.550Z,6.2
2022-11-06T18:31:52.957Z,6.1
2022-11-06T18:35:50.545Z,6.2
2022-11-06T18:37:51.880Z,6.3
2022-11-06T18:39:55.165Z,6.2
2022-11-06T18:41:54.427Z,6.2
2022-11-06T18:43:52.349Z,6.2
2022-11-06T18:45:55.647Z,6.2
2022-11-06T18:47:54.251Z,6.2
2022-11-06T18:49:50.355Z,6.2
2022-11-06T18:51:55.457Z,6.3
2022-11-06T18:53:48.772Z,6.3
2022-11-06T18:55:52.839Z,6.4
2022-11-06T18:59:51.359Z,6.4
2022-11-06T19:01:48.952Z,6.4
2022-11-06T19:05:48.786Z,6.5
2022-11-06T19:07:52.066Z,6.5
2022-11-06T19:11:52.842Z,6.5
2022-11-06T19:13:53.717Z,6.4
2022-11-06T19:15:55.602Z,6.4
2022-11-06T19:17:48.751Z,6.3
2022-11-06T19:19:48.781Z,6.3
2022-11-06T19:23:48.767Z,6.3
2022-11-06T19:25:54.530Z,6.3
2022-11-06T19:27:55.677Z,6.3
2022-11-06T19:29:50.046Z,6.4
2022-11-06T19:31:52.528Z,6.4
2022-11-06T19:33:55.379Z,6.4
2022-11-06T19:35:48.904Z,6.4
2022-11-06T19:37:48.805Z,6.4
2022-11-06T19:39:55.498Z,6.4
2022-11-06T19:41:48.759Z,6.4
2022-11-06T19:43:48.786Z,6.3
2022-11-06T19:47:51.626Z,6.2
2022-11-06T19:49:53.037Z,6.2
2022-11-06T19:53:52.528Z,6.2
2022-11-06T19:55:48.800Z,6.1
2022-11-06T19:57:55.310Z,6.2
2022-11-06T19:59:48.747Z,6.3
2022-11-06T20:01:54.226Z,6.3
2022-11-06T20:03:55.500Z,6.3
2022-11-06T20:05:53.875Z,6.3
2022-11-06T20:07:52.536Z,6.4
2022-11-06T20:11:48.795Z,6.4
2022-11-06T20:13:54.729Z,6.4
2022-11-06T20:15:54.911Z,6.4
2022-11-06T20:17:55.497Z,6.5
2022-11-06T20:23:48.770Z,6.4
2022-11-06T20:25:52.963Z,6.4
2022-11-06T20:27:55.504Z,6.4
2022-11-06T20:29:48.752Z,6.4
2022-11-06T20:31:49.108Z,6.5
2022-11-06T20:35:48.762Z,6.5
2022-11-06T20:37:52.585Z,6.5
2022-11-06T20:41:48.813Z,6.5
2022-11-06T20:43:53.382Z,6.5
2022-11-06T20:45:52.750Z,6.5
2022-11-06T20:47:52.396Z,6.5
2022-11-06T20:49:52.562Z,6.5
2022-11-06T20:52:13.054Z,6.6
2022-11-06T20:53:50.264Z,6.6
2022-11-06T20:55:49.034Z,6.6
2022-11-06T20:59:52.485Z,6.7
2022-11-06T21:01:48.953Z,6.6
2022-11-06T21:03:55.595Z,6.7
2022-11-06T21:05:52.427Z,6.7
2022-11-06T21:07:55.753Z,6.7
2022-11-06T21:09:58.828Z,6.7
2022-11-06T21:11:53.767Z,6.6
2022-11-06T21:13:51.203Z,6.6
2022-11-06T21:15:54.973Z,6.6
2022-11-06T21:17:50.036Z,6.6
2022-11-06T21:19:52.647Z,6.6
2022-11-06T21:23:50.607Z,6.6
2022-11-06T21:25:48.911Z,6.6
2022-11-06T21:29:48.811Z,6.6
2022-11-06T21:31:52.615Z,6.6
2022-11-06T21:35:50.657Z,6.6
2022-11-06T21:37:59.150Z,6.7
2022-11-06T21:41:53.263Z,6.6
2022-11-06T21:43:53.861Z,6.6
2022-11-06T21:47:48.770Z,6.6
2022-11-06T21:49:48.780Z,6.6
2022-11-06T21:53:48.765Z,6.7
2022-11-06T21:55:53.864Z,6.7
2022-11-06T21:57:54.252Z,6.7
2022-11-06T22:05:48.749Z,6.7
2022-11-06T22:07:52.620Z,6.7
2022-11-06T22:11:53.404Z,6.7
2022-11-06T22:17:50.638Z,6.8
2022-11-06T22:19:48.807Z,6.9
2022-11-06T22:23:48.778Z,6.9
2022-11-06T22:25:48.791Z,6.9
2022-11-06T22:29:51.507Z,7
2022-11-06T22:31:54.693Z,6.9
2022-11-06T22:35:54.208Z,6.9
2022-11-06T22:37:48.752Z,7
2022-11-06T22:39:55.622Z,6.9
2022-11-06T22:41:50.059Z,6.9
2022-11-06T22:43:55.126Z,7
2022-11-06T22:45:54.956Z,7
2022-11-06T22:47:55.551Z,7
2022-11-06T22:49:48.764Z,7
2022-11-06T22:51:54.966Z,7
2022-11-06T22:53:50.048Z,7
2022-11-06T22:55:49.319Z,7
2022-11-06T22:57:55.482Z,7
2022-11-06T22:59:51.575Z,7
2022-11-06T23:01:52.583Z,7
2022-11-06T23:03:55.452Z,7.1
2022-11-06T23:05:50.130Z,7.2
2022-11-06T23:07:52.632Z,7.1
2022-11-06T23:11:53.619Z,7.1
2022-11-06T23:17:48.791Z,7.1
2022-11-06T23:19:50.564Z,7.2
2022-11-06T23:21:55.377Z,7.2
2022-11-06T23:23:59.019Z,7.2
2022-11-06T23:25:54.861Z,7.3
2022-11-06T23:29:50.998Z,7.3
2022-11-06T23:31:53.220Z,7.3
2022-11-06T23:35:48.801Z,7.2
2022-11-06T23:37:48.838Z,7.1
2022-11-06T23:41:48.787Z,7
2022-11-06T23:43:55.432Z,7
2022-11-06T23:47:48.765Z,7.1
2022-11-06T23:49:52.542Z,7.1
2022-11-06T23:51:55.351Z,7.2
2022-11-06T23:53:48.794Z,7.1
2022-11-06T23:55:54.320Z,7.2
2022-11-06T23:57:55.457Z,7.2
2022-11-06T23:59:48.765Z,7.2
